sensor_id;sensor_type;location;lat;lon;timestamp;pressure;altitude;pressure_sealevel;temperature;humidity
47366;BME280;33105;47.964;7.982;2023-07-13T00:02:27;96766.41;;;18.89;77.59
47366;BME280;33105;47.964;7.982;2023-07-13T00:05:31;96767.75;;;18.69;79.04
47366;BME280;33105;47.964;7.982;2023-07-13T00:08:33;96777.41;;;18.81;79.97
47366;BME280;33105;47.964;7.982;2023-07-13T00:11:34;96781.34;;;18.80;79.37
47366;BME280;33105;47.964;7.982;2023-07-13T00:14:36;96778.22;;;18.81;79.48
47366;BME280;33105;47.964;7.982;2023-07-13T00:17:37;96778.38;;;18.76;78.76
47366;BME280;33105;47.964;7.982;2023-07-13T00:20:40;96779.03;;;18.82;75.67
47366;BME280;33105;47.964;7.982;2023-07-13T00:23:42;96771.91;;;19.03;73.15
47366;BME280;33105;47.964;7.982;2023-07-13T00:26:43;96769.69;;;18.91;75.74
47366;BME280;33105;47.964;7.982;2023-07-13T00:29:47;96779.38;;;18.80;75.63
47366;BME280;33105;47.964;7.982;2023-07-13T00:32:49;96778.69;;;18.97;73.64
47366;BME280;33105;47.964;7.982;2023-07-13T00:35:50;96774.47;;;18.99;73.15
47366;BME280;33105;47.964;7.982;2023-07-13T00:38:52;96769.88;;;18.95;74.68
47366;BME280;33105;47.964;7.982;2023-07-13T00:41:53;96771.63;;;18.91;73.75
47366;BME280;33105;47.964;7.982;2023-07-13T00:48:29;96768.38;;;18.66;74.68
47366;BME280;33105;47.964;7.982;2023-07-13T00:51:39;96772.88;;;18.62;74.64
47366;BME280;33105;47.964;7.982;2023-07-13T00:54:44;96779.22;;;18.63;74.94
47366;BME280;33105;47.964;7.982;2023-07-13T00:57:47;96771.94;;;18.67;75.65
47366;BME280;33105;47.964;7.982;2023-07-13T01:00:49;96770.13;;;18.85;72.66
47366;BME280;33105;47.964;7.982;2023-07-13T01:03:52;96772.03;;;18.76;74.76
47366;BME280;33105;47.964;7.982;2023-07-13T01:06:56;96769.81;;;18.64;74.74
47366;BME280;33105;47.964;7.982;2023-07-13T01:09:58;96771.00;;;18.58;73.78
47366;BME280;33105;47.964;7.982;2023-07-13T01:13:00;96774.84;;;18.48;76.90
47366;BME280;33105;47.964;7.982;2023-07-13T01:16:05;96758.38;;;18.43;74.63
47366;BME280;33105;47.964;7.982;2023-07-13T01:19:46;96766.97;;;18.42;72.82
47366;BME280;33105;47.964;7.982;2023-07-13T01:22:47;96752.31;;;18.55;69.78
47366;BME280;33105;47.964;7.982;2023-07-13T01:25:49;96755.50;;;18.48;66.46
47366;BME280;33105;47.964;7.982;2023-07-13T01:28:50;96754.53;;;18.30;70.47
47366;BME280;33105;47.964;7.982;2023-07-13T01:31:52;96759.09;;;17.99;73.99
47366;BME280;33105;47.964;7.982;2023-07-13T01:34:54;96757.88;;;18.05;79.16
47366;BME280;33105;47.964;7.982;2023-07-13T01:37:55;96758.69;;;18.06;81.10
47366;BME280;33105;47.964;7.982;2023-07-13T01:40:59;96754.97;;;18.10;84.66
47366;BME280;33105;47.964;7.982;2023-07-13T01:44:00;96750.88;;;18.08;82.65
47366;BME280;33105;47.964;7.982;2023-07-13T01:47:02;96746.00;;;18.05;83.90
47366;BME280;33105;47.964;7.982;2023-07-13T01:50:03;96743.69;;;18.07;84.96
47366;BME280;33105;47.964;7.982;2023-07-13T01:53:05;96740.88;;;17.98;86.52
47366;BME280;33105;47.964;7.982;2023-07-13T01:56:06;96738.81;;;17.90;87.09
47366;BME280;33105;47.964;7.982;2023-07-13T01:59:09;96744.16;;;17.86;86.18
47366;BME280;33105;47.964;7.982;2023-07-13T02:02:10;96745.78;;;17.87;85.84
47366;BME280;33105;47.964;7.982;2023-07-13T02:05:12;96747.53;;;17.83;86.52
47366;BME280;33105;47.964;7.982;2023-07-13T02:08:13;96742.94;;;17.79;80.44
47366;BME280;33105;47.964;7.982;2023-07-13T02:11:15;96741.00;;;17.65;80.52
47366;BME280;33105;47.964;7.982;2023-07-13T02:14:16;96752.72;;;17.57;79.63
47366;BME280;33105;47.964;7.982;2023-07-13T02:17:18;96748.84;;;17.45;77.21
47366;BME280;33105;47.964;7.982;2023-07-13T02:20:19;96748.13;;;17.39;77.23
47366;BME280;33105;47.964;7.982;2023-07-13T02:23:20;96743.94;;;17.28;77.67
47366;BME280;33105;47.964;7.982;2023-07-13T02:26:21;96739.41;;;17.18;77.43
47366;BME280;33105;47.964;7.982;2023-07-13T02:29:23;96734.50;;;17.02;76.97
47366;BME280;33105;47.964;7.982;2023-07-13T02:32:25;96727.09;;;16.97;76.55
47366;BME280;33105;47.964;7.982;2023-07-13T02:35:26;96736.06;;;16.89;76.70
47366;BME280;33105;47.964;7.982;2023-07-13T02:38:27;96747.19;;;16.84;75.37
47366;BME280;33105;47.964;7.982;2023-07-13T02:41:29;96741.88;;;16.74;75.98
47366;BME280;33105;47.964;7.982;2023-07-13T02:44:30;96742.78;;;16.69;74.73
47366;BME280;33105;47.964;7.982;2023-07-13T02:47:32;96746.16;;;16.61;76.06
47366;BME280;33105;47.964;7.982;2023-07-13T02:50:33;96742.69;;;16.55;76.82
47366;BME280;33105;47.964;7.982;2023-07-13T02:53:35;96743.06;;;16.49;75.93
47366;BME280;33105;47.964;7.982;2023-07-13T02:56:37;96735.78;;;16.39;76.35
47366;BME280;33105;47.964;7.982;2023-07-13T02:59:39;96739.28;;;16.26;75.85
47366;BME280;33105;47.964;7.982;2023-07-13T03:02:41;96742.94;;;16.21;76.80
47366;BME280;33105;47.964;7.982;2023-07-13T03:05:43;96737.06;;;16.28;76.22
47366;BME280;33105;47.964;7.982;2023-07-13T03:08:47;96745.69;;;16.21;76.25
47366;BME280;33105;47.964;7.982;2023-07-13T03:11:53;96741.97;;;16.31;72.56
47366;BME280;33105;47.964;7.982;2023-07-13T03:15:01;96739.88;;;16.42;73.00
47366;BME280;33105;47.964;7.982;2023-07-13T03:18:02;96741.34;;;16.34;74.70
47366;BME280;33105;47.964;7.982;2023-07-13T03:21:05;96743.91;;;16.30;74.56
47366;BME280;33105;47.964;7.982;2023-07-13T03:24:08;96757.75;;;16.44;72.72
47366;BME280;33105;47.964;7.982;2023-07-13T03:27:10;96752.25;;;16.44;74.20
47366;BME280;33105;47.964;7.982;2023-07-13T03:30:15;96758.94;;;16.38;74.29
47366;BME280;33105;47.964;7.982;2023-07-13T03:33:18;96769.03;;;16.29;75.30
47366;BME280;33105;47.964;7.982;2023-07-13T03:36:23;96762.75;;;16.23;74.92
47366;BME280;33105;47.964;7.982;2023-07-13T03:39:28;96757.25;;;16.23;75.53
47366;BME280;33105;47.964;7.982;2023-07-13T03:42:32;96756.72;;;16.21;74.87
47366;BME280;33105;47.964;7.982;2023-07-13T03:45:33;96763.34;;;16.20;76.06
47366;BME280;33105;47.964;7.982;2023-07-13T03:48:34;96761.13;;;16.22;75.60
47366;BME280;33105;47.964;7.982;2023-07-13T03:51:36;96766.25;;;16.10;76.80
47366;BME280;33105;47.964;7.982;2023-07-13T03:54:37;96762.34;;;15.92;76.83
47366;BME280;33105;47.964;7.982;2023-07-13T03:57:38;96772.97;;;16.04;77.33
47366;BME280;33105;47.964;7.982;2023-07-13T04:00:39;96768.50;;;16.08;77.31
47366;BME280;33105;47.964;7.982;2023-07-13T04:03:41;96764.69;;;16.04;76.92
47366;BME280;33105;47.964;7.982;2023-07-13T04:06:42;96774.84;;;15.85;77.92
47366;BME280;33105;47.964;7.982;2023-07-13T04:09:46;96772.09;;;15.85;78.26
47366;BME280;33105;47.964;7.982;2023-07-13T04:12:47;96777.53;;;15.90;79.36
47366;BME280;33105;47.964;7.982;2023-07-13T04:15:49;96778.66;;;15.89;79.57
47366;BME280;33105;47.964;7.982;2023-07-13T04:18:51;96784.56;;;16.01;80.13
47366;BME280;33105;47.964;7.982;2023-07-13T04:21:55;96783.75;;;16.01;80.19
47366;BME280;33105;47.964;7.982;2023-07-13T04:24:57;96780.41;;;16.04;80.61
47366;BME280;33105;47.964;7.982;2023-07-13T04:27:58;96781.81;;;16.01;80.06
47366;BME280;33105;47.964;7.982;2023-07-13T04:30:59;96787.09;;;16.16;78.61
47366;BME280;33105;47.964;7.982;2023-07-13T04:34:01;96790.22;;;16.10;78.63
47366;BME280;33105;47.964;7.982;2023-07-13T04:37:02;96798.94;;;15.98;79.87
47366;BME280;33105;47.964;7.982;2023-07-13T04:40:05;96806.25;;;16.08;80.64
47366;BME280;33105;47.964;7.982;2023-07-13T04:43:07;96816.47;;;16.07;80.46
47366;BME280;33105;47.964;7.982;2023-07-13T04:46:11;96804.91;;;16.05;80.40
47366;BME280;33105;47.964;7.982;2023-07-13T04:49:12;96809.38;;;16.01;79.99
47366;BME280;33105;47.964;7.982;2023-07-13T04:52:13;96800.00;;;16.02;80.20
47366;BME280;33105;47.964;7.982;2023-07-13T04:55:14;96809.22;;;16.11;79.22
47366;BME280;33105;47.964;7.982;2023-07-13T04:58:16;96807.28;;;16.12;81.00
47366;BME280;33105;47.964;7.982;2023-07-13T05:01:17;96815.78;;;16.15;80.62
47366;BME280;33105;47.964;7.982;2023-07-13T05:04:18;96830.63;;;16.19;81.65
47366;BME280;33105;47.964;7.982;2023-07-13T05:07:21;96823.69;;;16.22;81.44
47366;BME280;33105;47.964;7.982;2023-07-13T05:10:22;96839.47;;;16.16;82.36
47366;BME280;33105;47.964;7.982;2023-07-13T05:13:24;96832.84;;;16.17;82.50
47366;BME280;33105;47.964;7.982;2023-07-13T05:16:25;96831.72;;;16.18;82.67
47366;BME280;33105;47.964;7.982;2023-07-13T05:19:26;96827.03;;;16.19;83.65
47366;BME280;33105;47.964;7.982;2023-07-13T05:22:28;96835.25;;;16.24;84.19
47366;BME280;33105;47.964;7.982;2023-07-13T05:25:29;96837.94;;;16.29;83.92
47366;BME280;33105;47.964;7.982;2023-07-13T05:28:31;96848.59;;;16.36;84.81
47366;BME280;33105;47.964;7.982;2023-07-13T05:31:33;96845.03;;;16.54;82.38
47366;BME280;33105;47.964;7.982;2023-07-13T05:34:34;96847.88;;;16.49;82.64
47366;BME280;33105;47.964;7.982;2023-07-13T05:37:37;96852.31;;;16.45;82.81
47366;BME280;33105;47.964;7.982;2023-07-13T05:40:38;96862.94;;;16.56;82.43
47366;BME280;33105;47.964;7.982;2023-07-13T05:43:39;96859.34;;;16.56;81.91
47366;BME280;33105;47.964;7.982;2023-07-13T05:46:41;96861.00;;;16.57;82.22
47366;BME280;33105;47.964;7.982;2023-07-13T05:49:42;96860.34;;;16.65;81.54
47366;BME280;33105;47.964;7.982;2023-07-13T05:52:43;96851.69;;;16.90;80.14
47366;BME280;33105;47.964;7.982;2023-07-13T05:55:46;96862.19;;;16.88;81.75
47366;BME280;33105;47.964;7.982;2023-07-13T05:58:52;96862.25;;;17.02;82.83
47366;BME280;33105;47.964;7.982;2023-07-13T06:01:53;96857.38;;;17.78;74.50
47366;BME280;33105;47.964;7.982;2023-07-13T06:04:54;96859.94;;;18.15;76.17
47366;BME280;33105;47.964;7.982;2023-07-13T06:07:55;96854.50;;;17.96;78.17
47366;BME280;33105;47.964;7.982;2023-07-13T06:11:18;96860.47;;;18.04;76.29
47366;BME280;33105;47.964;7.982;2023-07-13T06:14:19;96864.03;;;17.90;77.93
47366;BME280;33105;47.964;7.982;2023-07-13T06:17:21;96865.84;;;17.67;80.02
47366;BME280;33105;47.964;7.982;2023-07-13T06:20:22;96869.25;;;17.92;77.52
47366;BME280;33105;47.964;7.982;2023-07-13T06:23:24;96880.22;;;17.51;74.53
47366;BME280;33105;47.964;7.982;2023-07-13T06:26:25;96882.56;;;17.57;78.76
47366;BME280;33105;47.964;7.982;2023-07-13T06:29:26;96876.13;;;17.81;78.46
47366;BME280;33105;47.964;7.982;2023-07-13T06:32:27;96877.03;;;18.17;78.50
47366;BME280;33105;47.964;7.982;2023-07-13T06:35:29;96867.47;;;18.64;73.92
47366;BME280;33105;47.964;7.982;2023-07-13T06:38:30;96880.81;;;18.49;75.77
47366;BME280;33105;47.964;7.982;2023-07-13T06:41:31;96871.38;;;18.36;74.46
47366;BME280;33105;47.964;7.982;2023-07-13T06:44:34;96874.16;;;18.36;76.05
47366;BME280;33105;47.964;7.982;2023-07-13T06:47:35;96872.50;;;18.62;78.42
47366;BME280;33105;47.964;7.982;2023-07-13T06:50:36;96873.25;;;18.90;74.92
47366;BME280;33105;47.964;7.982;2023-07-13T06:53:37;96874.47;;;19.43;69.38
47366;BME280;33105;47.964;7.982;2023-07-13T06:56:39;96877.00;;;19.84;63.95
47366;BME280;33105;47.964;7.982;2023-07-13T06:59:40;96870.75;;;19.69;66.13
47366;BME280;33105;47.964;7.982;2023-07-13T07:02:42;96877.44;;;19.99;63.44
47366;BME280;33105;47.964;7.982;2023-07-13T07:05:43;96880.06;;;19.74;69.54
47366;BME280;33105;47.964;7.982;2023-07-13T07:08:45;96879.25;;;20.04;65.78
47366;BME280;33105;47.964;7.982;2023-07-13T07:11:47;96878.56;;;20.07;70.30
47366;BME280;33105;47.964;7.982;2023-07-13T07:14:48;96878.91;;;20.05;61.50
47366;BME280;33105;47.964;7.982;2023-07-13T07:17:49;96892.88;;;19.92;68.21
47366;BME280;33105;47.964;7.982;2023-07-13T07:20:50;96885.63;;;20.13;65.21
47366;BME280;33105;47.964;7.982;2023-07-13T07:23:52;96883.19;;;20.60;57.80
47366;BME280;33105;47.964;7.982;2023-07-13T07:26:53;96890.72;;;20.68;55.78
47366;BME280;33105;47.964;7.982;2023-07-13T07:29:54;96890.22;;;20.66;57.95
47366;BME280;33105;47.964;7.982;2023-07-13T07:32:56;96901.56;;;20.38;61.55
47366;BME280;33105;47.964;7.982;2023-07-13T07:35:57;96903.91;;;20.14;63.98
47366;BME280;33105;47.964;7.982;2023-07-13T07:38:58;96890.66;;;20.11;61.90
47366;BME280;33105;47.964;7.982;2023-07-13T07:41:59;96899.41;;;20.35;56.36
47366;BME280;33105;47.964;7.982;2023-07-13T07:45:00;96891.78;;;19.70;57.70
47366;BME280;33105;47.964;7.982;2023-07-13T07:48:02;96892.59;;;19.49;58.97
47366;BME280;33105;47.964;7.982;2023-07-13T07:51:03;96893.22;;;19.68;59.83
47366;BME280;33105;47.964;7.982;2023-07-13T07:54:05;96889.66;;;20.07;60.08
47366;BME280;33105;47.964;7.982;2023-07-13T07:57:06;96895.78;;;19.87;58.92
47366;BME280;33105;47.964;7.982;2023-07-13T08:00:09;96902.47;;;19.86;56.17
47366;BME280;33105;47.964;7.982;2023-07-13T08:03:15;96906.50;;;19.80;57.42
47366;BME280;33105;47.964;7.982;2023-07-13T08:06:16;96899.69;;;20.17;58.69
47366;BME280;33105;47.964;7.982;2023-07-13T08:09:20;96891.81;;;20.10;54.96
47366;BME280;33105;47.964;7.982;2023-07-13T08:12:21;96895.25;;;20.47;55.72
47366;BME280;33105;47.964;7.982;2023-07-13T08:15:23;96887.44;;;20.66;53.43
47366;BME280;33105;47.964;7.982;2023-07-13T08:18:24;96890.69;;;20.51;54.06
47366;BME280;33105;47.964;7.982;2023-07-13T08:21:26;96897.72;;;20.57;54.50
47366;BME280;33105;47.964;7.982;2023-07-13T08:24:27;96898.59;;;20.26;51.93
47366;BME280;33105;47.964;7.982;2023-07-13T08:27:28;96895.09;;;20.52;57.98
47366;BME280;33105;47.964;7.982;2023-07-13T08:30:30;96892.38;;;20.78;54.82
47366;BME280;33105;47.964;7.982;2023-07-13T08:33:31;96892.75;;;21.36;57.08
47366;BME280;33105;47.964;7.982;2023-07-13T08:36:32;96894.84;;;21.14;51.78
47366;BME280;33105;47.964;7.982;2023-07-13T08:39:34;96900.75;;;21.38;53.19
47366;BME280;33105;47.964;7.982;2023-07-13T08:42:42;96895.03;;;21.52;52.41
47366;BME280;33105;47.964;7.982;2023-07-13T08:45:46;96897.00;;;21.51;50.91
47366;BME280;33105;47.964;7.982;2023-07-13T08:48:58;96893.69;;;21.58;52.92
47366;BME280;33105;47.964;7.982;2023-07-13T08:52:04;96902.09;;;21.23;53.26
47366;BME280;33105;47.964;7.982;2023-07-13T08:55:17;96897.00;;;21.51;52.51
47366;BME280;33105;47.964;7.982;2023-07-13T08:58:19;96899.75;;;21.68;53.47
47366;BME280;33105;47.964;7.982;2023-07-13T09:01:29;96899.09;;;21.63;52.38
47366;BME280;33105;47.964;7.982;2023-07-13T09:04:40;96905.59;;;21.84;53.11
47366;BME280;33105;47.964;7.982;2023-07-13T09:17:41;96893.88;;;22.55;50.90
47366;BME280;33105;47.964;7.982;2023-07-13T09:20:54;96896.28;;;22.35;49.70
47366;BME280;33105;47.964;7.982;2023-07-13T09:27:28;96905.97;;;22.59;50.31
47366;BME280;33105;47.964;7.982;2023-07-13T09:30:38;96890.41;;;23.17;48.41
47366;BME280;33105;47.964;7.982;2023-07-13T09:33:41;96906.91;;;22.71;47.35
47366;BME280;33105;47.964;7.982;2023-07-13T09:36:43;96893.41;;;22.23;48.41
47366;BME280;33105;47.964;7.982;2023-07-13T09:39:46;96891.81;;;22.43;50.19
47366;BME280;33105;47.964;7.982;2023-07-13T09:42:47;96903.91;;;22.09;48.54
47366;BME280;33105;47.964;7.982;2023-07-13T09:45:48;96906.66;;;22.26;49.84
47366;BME280;33105;47.964;7.982;2023-07-13T09:48:49;96891.56;;;22.57;50.40
47366;BME280;33105;47.964;7.982;2023-07-13T09:52:06;96894.28;;;22.74;48.11
47366;BME280;33105;47.964;7.982;2023-07-13T09:55:27;96893.31;;;22.70;47.11
47366;BME280;33105;47.964;7.982;2023-07-13T09:58:30;96893.25;;;22.11;46.02
47366;BME280;33105;47.964;7.982;2023-07-13T10:01:37;96900.84;;;22.02;47.58
47366;BME280;33105;47.964;7.982;2023-07-13T10:04:39;96900.50;;;22.42;47.54
47366;BME280;33105;47.964;7.982;2023-07-13T10:07:45;96896.66;;;22.55;44.95
47366;BME280;33105;47.964;7.982;2023-07-13T10:10:46;96900.56;;;22.62;47.86
47366;BME280;33105;47.964;7.982;2023-07-13T10:13:55;96900.34;;;22.38;47.02
47366;BME280;33105;47.964;7.982;2023-07-13T10:17:03;96898.97;;;22.53;46.79
47366;BME280;33105;47.964;7.982;2023-07-13T10:20:05;96905.44;;;22.36;45.83
47366;BME280;33105;47.964;7.982;2023-07-13T10:23:15;96906.75;;;22.68;46.83
47366;BME280;33105;47.964;7.982;2023-07-13T10:26:26;96901.31;;;22.42;46.20
47366;BME280;33105;47.964;7.982;2023-07-13T10:29:29;96902.38;;;22.58;47.64
47366;BME280;33105;47.964;7.982;2023-07-13T10:32:36;96903.22;;;22.88;47.52
47366;BME280;33105;47.964;7.982;2023-07-13T10:35:39;96906.75;;;22.68;46.26
47366;BME280;33105;47.964;7.982;2023-07-13T10:38:43;96897.63;;;22.59;46.66
47366;BME280;33105;47.964;7.982;2023-07-13T10:41:48;96902.84;;;22.98;46.33
47366;BME280;33105;47.964;7.982;2023-07-13T10:44:51;96895.47;;;23.35;47.12
47366;BME280;33105;47.964;7.982;2023-07-13T10:47:53;96900.78;;;23.49;41.15
47366;BME280;33105;47.964;7.982;2023-07-13T10:50:57;96907.25;;;22.99;44.75
47366;BME280;33105;47.964;7.982;2023-07-13T10:54:22;96904.19;;;23.13;44.21
47366;BME280;33105;47.964;7.982;2023-07-13T10:57:27;96897.13;;;23.16;45.41
47366;BME280;33105;47.964;7.982;2023-07-13T11:00:32;96901.38;;;23.76;46.42
47366;BME280;33105;47.964;7.982;2023-07-13T11:06:47;96912.97;;;23.98;43.98
47366;BME280;33105;47.964;7.982;2023-07-13T11:09:56;96908.19;;;23.99;45.61
47366;BME280;33105;47.964;7.982;2023-07-13T11:12:58;96900.97;;;23.98;41.00
47366;BME280;33105;47.964;7.982;2023-07-13T11:16:00;96893.53;;;24.02;40.15
47366;BME280;33105;47.964;7.982;2023-07-13T11:28:25;96891.81;;;23.77;39.55
47366;BME280;33105;47.964;7.982;2023-07-13T11:31:33;96890.03;;;23.60;40.67
47366;BME280;33105;47.964;7.982;2023-07-13T11:34:38;96887.88;;;23.24;41.49
47366;BME280;33105;47.964;7.982;2023-07-13T11:37:40;96880.47;;;23.82;42.86
47366;BME280;33105;47.964;7.982;2023-07-13T11:40:43;96874.06;;;24.51;42.62
47366;BME280;33105;47.964;7.982;2023-07-13T11:43:48;96884.78;;;24.61;40.73
47366;BME280;33105;47.964;7.982;2023-07-13T11:46:54;96879.72;;;24.18;38.00
47366;BME280;33105;47.964;7.982;2023-07-13T11:49:56;96876.59;;;24.19;41.14
47366;BME280;33105;47.964;7.982;2023-07-13T11:52:59;96878.91;;;24.17;37.47
47366;BME280;33105;47.964;7.982;2023-07-13T11:56:00;96890.47;;;24.28;38.15
47366;BME280;33105;47.964;7.982;2023-07-13T11:59:07;96882.81;;;24.25;40.56
47366;BME280;33105;47.964;7.982;2023-07-13T12:05:31;96869.56;;;23.56;39.12
47366;BME280;33105;47.964;7.982;2023-07-13T12:08:39;96869.00;;;23.95;39.00
47366;BME280;33105;47.964;7.982;2023-07-13T12:11:44;96873.44;;;24.08;40.95
47366;BME280;33105;47.964;7.982;2023-07-13T12:14:45;96881.53;;;23.89;39.61
47366;BME280;33105;47.964;7.982;2023-07-13T12:17:46;96891.19;;;24.37;42.26
47366;BME280;33105;47.964;7.982;2023-07-13T12:20:49;96882.69;;;24.33;41.03
47366;BME280;33105;47.964;7.982;2023-07-13T12:23:51;96872.09;;;24.51;40.71
47366;BME280;33105;47.964;7.982;2023-07-13T12:26:59;96876.28;;;24.69;40.48
47366;BME280;33105;47.964;7.982;2023-07-13T12:30:06;96865.09;;;25.34;40.15
47366;BME280;33105;47.964;7.982;2023-07-13T12:33:24;96861.50;;;25.61;39.67
47366;BME280;33105;47.964;7.982;2023-07-13T12:36:26;96867.34;;;25.56;41.29
47366;BME280;33105;47.964;7.982;2023-07-13T12:39:36;96868.25;;;25.72;37.83
47366;BME280;33105;47.964;7.982;2023-07-13T12:42:39;96868.50;;;25.55;38.67
47366;BME280;33105;47.964;7.982;2023-07-13T12:46:01;96869.13;;;25.49;33.81
47366;BME280;33105;47.964;7.982;2023-07-13T12:49:05;96864.63;;;25.32;38.92
47366;BME280;33105;47.964;7.982;2023-07-13T12:52:16;96863.34;;;25.69;36.43
47366;BME280;33105;47.964;7.982;2023-07-13T12:55:20;96866.28;;;26.04;33.70
47366;BME280;33105;47.964;7.982;2023-07-13T12:58:27;96857.63;;;26.09;40.84
47366;BME280;33105;47.964;7.982;2023-07-13T13:01:32;96861.44;;;26.17;38.63
47366;BME280;33105;47.964;7.982;2023-07-13T13:04:39;96860.53;;;26.13;36.43
47366;BME280;33105;47.964;7.982;2023-07-13T13:07:41;96857.44;;;26.02;33.37
47366;BME280;33105;47.964;7.982;2023-07-13T13:10:43;96852.22;;;26.17;32.50
47366;BME280;33105;47.964;7.982;2023-07-13T13:13:46;96849.53;;;25.76;36.89
47366;BME280;33105;47.964;7.982;2023-07-13T13:16:52;96851.38;;;25.57;38.73
47366;BME280;33105;47.964;7.982;2023-07-13T13:19:54;96863.13;;;25.62;40.63
47366;BME280;33105;47.964;7.982;2023-07-13T13:22:55;96860.44;;;26.09;35.81
47366;BME280;33105;47.964;7.982;2023-07-13T13:25:57;96857.31;;;25.55;38.12
47366;BME280;33105;47.964;7.982;2023-07-13T13:28:59;96856.94;;;25.69;39.61
47366;BME280;33105;47.964;7.982;2023-07-13T13:32:00;96853.72;;;25.83;37.51
47366;BME280;33105;47.964;7.982;2023-07-13T13:35:02;96854.97;;;25.69;40.06
47366;BME280;33105;47.964;7.982;2023-07-13T13:38:10;96855.44;;;25.31;39.17
47366;BME280;33105;47.964;7.982;2023-07-13T13:41:13;96856.16;;;25.56;37.64
47366;BME280;33105;47.964;7.982;2023-07-13T13:44:18;96851.00;;;25.70;38.38
47366;BME280;33105;47.964;7.982;2023-07-13T13:47:30;96856.34;;;26.07;39.12
47366;BME280;33105;47.964;7.982;2023-07-13T13:50:31;96863.53;;;26.36;42.93
47366;BME280;33105;47.964;7.982;2023-07-13T13:53:33;96862.06;;;26.26;38.98
47366;BME280;33105;47.964;7.982;2023-07-13T13:56:34;96856.91;;;25.97;38.27
47366;BME280;33105;47.964;7.982;2023-07-13T13:59:35;96860.63;;;25.05;37.23
47366;BME280;33105;47.964;7.982;2023-07-13T14:02:42;96857.00;;;25.17;38.33
47366;BME280;33105;47.964;7.982;2023-07-13T14:05:44;96859.94;;;25.08;38.63
47366;BME280;33105;47.964;7.982;2023-07-13T14:08:47;96858.94;;;25.84;42.46
47366;BME280;33105;47.964;7.982;2023-07-13T14:11:49;96855.09;;;25.89;37.02
47366;BME280;33105;47.964;7.982;2023-07-13T14:14:51;96851.72;;;25.67;38.44
47366;BME280;33105;47.964;7.982;2023-07-13T14:17:54;96849.13;;;25.62;38.60
47366;BME280;33105;47.964;7.982;2023-07-13T14:20:55;96856.75;;;25.50;37.74
47366;BME280;33105;47.964;7.982;2023-07-13T14:23:56;96852.16;;;25.69;38.86
47366;BME280;33105;47.964;7.982;2023-07-13T14:26:58;96867.09;;;25.89;38.56
47366;BME280;33105;47.964;7.982;2023-07-13T14:29:59;96873.72;;;25.29;40.06
47366;BME280;33105;47.964;7.982;2023-07-13T14:33:00;96864.19;;;25.58;38.34
47366;BME280;33105;47.964;7.982;2023-07-13T14:36:03;96862.31;;;25.62;40.59
47366;BME280;33105;47.964;7.982;2023-07-13T14:39:19;96861.28;;;25.26;39.36
47366;BME280;33105;47.964;7.982;2023-07-13T14:42:20;96878.72;;;24.59;40.66
47366;BME280;33105;47.964;7.982;2023-07-13T14:45:22;96876.75;;;24.35;42.76
47366;BME280;33105;47.964;7.982;2023-07-13T14:48:24;96877.72;;;23.94;42.77
47366;BME280;33105;47.964;7.982;2023-07-13T14:51:25;96890.56;;;23.74;43.21
47366;BME280;33105;47.964;7.982;2023-07-13T14:54:27;96873.56;;;24.12;41.92
47366;BME280;33105;47.964;7.982;2023-07-13T14:57:28;96876.44;;;24.03;43.34
47366;BME280;33105;47.964;7.982;2023-07-13T15:00:30;96875.75;;;24.06;44.36
47366;BME280;33105;47.964;7.982;2023-07-13T15:03:32;96872.06;;;24.27;42.87
47366;BME280;33105;47.964;7.982;2023-07-13T15:07:12;96871.56;;;24.13;41.38
47366;BME280;33105;47.964;7.982;2023-07-13T15:10:23;96877.13;;;23.55;43.43
47366;BME280;33105;47.964;7.982;2023-07-13T15:13:25;96875.28;;;23.38;44.20
47366;BME280;33105;47.964;7.982;2023-07-13T15:16:27;96867.16;;;22.92;44.86
47366;BME280;33105;47.964;7.982;2023-07-13T15:19:28;96880.88;;;22.97;45.60
47366;BME280;33105;47.964;7.982;2023-07-13T15:22:31;96879.81;;;22.81;46.99
47366;BME280;33105;47.964;7.982;2023-07-13T15:25:33;96868.22;;;23.20;44.37
47366;BME280;33105;47.964;7.982;2023-07-13T15:28:34;96861.41;;;23.51;42.82
47366;BME280;33105;47.964;7.982;2023-07-13T15:31:36;96867.91;;;23.88;43.37
47366;BME280;33105;47.964;7.982;2023-07-13T15:34:38;96872.38;;;24.13;44.63
47366;BME280;33105;47.964;7.982;2023-07-13T15:37:40;96870.25;;;23.86;42.60
47366;BME280;33105;47.964;7.982;2023-07-13T15:40:41;96869.56;;;23.56;43.48
47366;BME280;33105;47.964;7.982;2023-07-13T15:43:43;96866.16;;;23.50;43.66
47366;BME280;33105;47.964;7.982;2023-07-13T15:46:44;96873.72;;;23.29;44.79
47366;BME280;33105;47.964;7.982;2023-07-13T15:49:46;96870.81;;;23.25;44.76
47366;BME280;33105;47.964;7.982;2023-07-13T15:52:52;96872.75;;;23.46;45.27
47366;BME280;33105;47.964;7.982;2023-07-13T15:55:54;96875.28;;;23.59;44.72
47366;BME280;33105;47.964;7.982;2023-07-13T15:58:56;96878.53;;;23.40;45.40
47366;BME280;33105;47.964;7.982;2023-07-13T16:01:58;96869.75;;;23.71;42.19
47366;BME280;33105;47.964;7.982;2023-07-13T16:04:59;96877.78;;;23.52;43.99
47366;BME280;33105;47.964;7.982;2023-07-13T16:11:02;96860.66;;;23.62;42.56
47366;BME280;33105;47.964;7.982;2023-07-13T16:14:05;96868.06;;;23.91;42.31
47366;BME280;33105;47.964;7.982;2023-07-13T16:17:14;96868.34;;;23.78;46.36
47366;BME280;33105;47.964;7.982;2023-07-13T16:20:16;96870.50;;;23.93;45.24
47366;BME280;33105;47.964;7.982;2023-07-13T16:23:18;96869.69;;;23.92;41.50
47366;BME280;33105;47.964;7.982;2023-07-13T16:26:29;96868.47;;;23.81;43.49
47366;BME280;33105;47.964;7.982;2023-07-13T16:29:40;96882.00;;;23.58;47.78
47366;BME280;33105;47.964;7.982;2023-07-13T16:32:41;96879.75;;;23.52;48.21
47366;BME280;33105;47.964;7.982;2023-07-13T16:35:43;96874.53;;;23.50;45.86
47366;BME280;33105;47.964;7.982;2023-07-13T16:38:46;96871.88;;;23.54;46.56
47366;BME280;33105;47.964;7.982;2023-07-13T16:41:47;96866.91;;;23.59;46.95
47366;BME280;33105;47.964;7.982;2023-07-13T16:44:48;96874.06;;;23.48;47.63
47366;BME280;33105;47.964;7.982;2023-07-13T16:47:54;96878.94;;;23.30;49.11